Time;durP1;ratioP1;P1;durP2;ratioP2;P2;SDS_P1;SDS_P2;PMS_P1;PMS_P2;Temp;Humidity;BMP_temperature;BMP_pressure;BME280_temperature;BME280_humidity;BME280_pressure;Samples;Min_cycle;Max_cycle;Signal;HPM_P1;HPM_P2
2023/03/13 00:02:22;;;;;;;;;;;;;;;7.34;76.80;97865.53;7379350;19;19931;-83
2023/03/13 00:04:50;;;;;;;;;;;;;;;7.33;76.59;97863.91;7377241;19;19919;-84
2023/03/13 00:07:16;;;;;;;;;;;;;;;7.25;77.16;97856.72;7379770;19;19927;-84
2023/03/13 00:09:43;;;;;;;;;;;;;;;7.26;76.93;97858.38;7379213;19;19923;-85
2023/03/13 00:12:13;;;;;;;;;;;;;;;7.23;77.28;97853.41;7386836;19;19923;-83
2023/03/13 00:14:41;;;;;;;;;;;;;;;7.21;77.61;97858.84;7385365;19;19918;-84
2023/03/13 00:17:07;;;;;;;;;;;;;;;7.23;77.54;97853.41;7386913;19;19922;-83
2023/03/13 00:19:34;;;;;;;;;;;;;;;7.26;77.49;97858.38;7379584;19;19926;-82
2023/03/13 00:22:01;;;;;;;;;;;;;;;7.26;77.66;97848.69;7385353;19;19918;-84
2023/03/13 00:24:27;;;;;;;;;;;;;;;7.31;77.60;97850.88;7384332;19;19918;-85
2023/03/13 00:26:54;;;;;;;;;;;;;;;7.33;77.63;97846.28;7385908;19;19918;-82
2023/03/13 00:29:20;;;;;;;;;;;;;;;7.34;77.66;97845.31;7381516;19;20257;-84
2023/03/13 00:31:47;;;;;;;;;;;;;;;7.36;77.57;97843.38;7383358;19;19919;-83
2023/03/13 00:34:15;;;;;;;;;;;;;;;7.37;77.33;97842.41;7383087;19;19915;-83
2023/03/13 00:36:41;;;;;;;;;;;;;;;7.38;77.36;97841.41;7382566;19;19943;-84
2023/03/13 00:39:08;;;;;;;;;;;;;;;7.37;77.70;97839.78;7380327;19;19950;-82
2023/03/13 00:41:35;;;;;;;;;;;;;;;7.41;77.64;97835.84;7374820;19;20237;-83
2023/03/13 00:44:03;;;;;;;;;;;;;;;7.45;77.29;97833.75;7383108;19;19911;-83
2023/03/13 00:46:30;;;;;;;;;;;;;;;7.47;77.09;97832.63;7380447;19;20402;-84
2023/03/13 00:48:57;;;;;;;;;;;;;;;7.45;77.35;97817.94;7382526;19;19919;-82
2023/03/13 00:51:25;;;;;;;;;;;;;;;7.50;77.06;97822.78;7383161;19;19926;-84
2023/03/13 00:53:53;;;;;;;;;;;;;;;7.45;77.04;97816.16;7379604;19;19926;-83
2023/03/13 00:56:20;;;;;;;;;;;;;;;7.43;77.20;97817.28;7382567;19;19930;-84
2023/03/13 00:58:47;;;;;;;;;;;;;;;7.46;77.38;97809.09;7375019;19;19919;-84
2023/03/13 01:01:20;;;;;;;;;;;;;;;7.42;77.27;97805.09;7383173;19;19954;-83
2023/03/13 01:03:48;;;;;;;;;;;;;;;7.44;77.09;97806.59;7381060;19;19937;-83
2023/03/13 01:06:15;;;;;;;;;;;;;;;7.43;77.38;97802.31;7379662;19;20271;-82
2023/03/13 01:08:42;;;;;;;;;;;;;;;7.43;77.35;97797.06;7377557;19;20424;-85
2023/03/13 01:11:10;;;;;;;;;;;;;;;7.41;77.41;97793.75;7379594;19;19930;-83
2023/03/13 01:13:36;;;;;;;;;;;;;;;7.44;77.45;97795.25;7378334;19;19918;-82
2023/03/13 01:16:07;;;;;;;;;;;;;;;7.41;77.56;97788.47;7380856;19;19946;-81
2023/03/13 01:18:34;;;;;;;;;;;;;;;7.39;77.40;97779.91;7376837;19;20338;-83
2023/03/13 01:21:01;;;;;;;;;;;;;;;7.36;77.57;97785.47;7381114;19;20257;-83
2023/03/13 01:23:28;;;;;;;;;;;;;;;7.37;77.26;97771.34;7382090;19;20021;-84
2023/03/13 01:25:55;;;;;;;;;;;;;;;7.40;77.31;97767.59;7376331;19;19919;-83
2023/03/13 01:28:21;;;;;;;;;;;;;;;7.40;77.32;97767.59;7381189;19;20329;-84
2023/03/13 01:30:48;;;;;;;;;;;;;;;7.40;77.48;97770.22;7384613;19;19915;-84
2023/03/13 01:33:15;;;;;;;;;;;;;;;7.34;77.64;97755.84;7382301;19;20172;-84
2023/03/13 01:35:42;;;;;;;;;;;;;;;7.33;77.68;97745.47;7377873;19;19923;-84
2023/03/13 01:38:08;;;;;;;;;;;;;;;7.37;77.60;97744.19;7384464;19;19918;-84
2023/03/13 01:40:39;;;;;;;;;;;;;;;7.35;77.64;97735.63;7378051;19;19919;-85
2023/03/13 01:43:20;;;;;;;;;;;;;;;7.34;77.71;97740.06;7381614;19;19943;-84
2023/03/13 01:45:59;;;;;;;;;;;;;;;7.36;77.44;97742.53;7378322;19;19932;-84
2023/03/13 01:48:53;;;;;;;;;;;;;;;7.38;77.44;97730.06;7376753;19;19922;-83
2023/03/13 01:51:20;;;;;;;;;;;;;;;7.37;77.71;97726.63;7381063;19;19918;-83
2023/03/13 01:53:49;;;;;;;;;;;;;;;7.41;77.28;97720.06;7378230;19;19958;-85
2023/03/13 01:56:19;;;;;;;;;;;;;;;7.44;77.37;97722.38;7378253;19;19929;-85
2023/03/13 01:58:46;;;;;;;;;;;;;;;7.45;77.31;97716.16;7375205;19;19922;-83
2023/03/13 02:01:13;;;;;;;;;;;;;;;7.48;77.20;97710.59;7381079;19;19918;-84
2023/03/13 02:03:39;;;;;;;;;;;;;;;7.48;77.06;97707.94;7377917;19;19929;-83
2023/03/13 02:06:06;;;;;;;;;;;;;;;7.53;77.06;97711.91;7380734;19;19955;-85
2023/03/13 02:08:42;;;;;;;;;;;;;;;7.58;76.83;97705.25;7377024;19;19919;-82
2023/03/13 02:11:18;;;;;;;;;;;;;;;7.61;76.70;97691.75;7382081;19;19926;-82
2023/03/13 02:13:47;;;;;;;;;;;;;;;7.67;76.47;97685.06;7378352;19;19918;-84
2023/03/13 02:16:14;;;;;;;;;;;;;;;7.71;76.01;97681.13;7383174;19;20264;-85
2023/03/13 02:18:46;;;;;;;;;;;;;;;7.72;75.88;97674.88;7376879;19;20496;-84
2023/03/13 02:21:19;;;;;;;;;;;;;;;7.74;75.86;97672.94;7383032;19;19939;-84
2023/03/13 02:23:49;;;;;;;;;;;;;;;7.78;75.85;97673.44;7377893;19;19923;-85
2023/03/13 02:26:16;;;;;;;;;;;;;;;7.80;75.32;97672.31;7380904;19;19911;-84
2023/03/13 02:28:42;;;;;;;;;;;;;;;7.81;75.78;97676.56;7377491;19;20260;-84
2023/03/13 02:31:12;;;;;;;;;;;;;;;7.84;75.63;97681.53;7383300;19;19927;-85
2023/03/13 02:33:39;;;;;;;;;;;;;;;7.90;74.96;97670.38;7373307;19;19931;-82
2023/03/13 02:36:06;;;;;;;;;;;;;;;7.99;74.86;97667.78;7381544;19;19930;-84
2023/03/13 02:38:35;;;;;;;;;;;;;;;8.00;75.04;97658.91;7378390;19;19926;-84
2023/03/13 02:41:02;;;;;;;;;;;;;;;8.05;75.10;97661.91;7378721;19;19959;-83
2023/03/13 02:43:29;;;;;;;;;;;;;;;8.13;74.29;97649.56;7378176;19;19920;-84
2023/03/13 02:46:01;;;;;;;;;;;;;;;8.21;74.33;97642.69;7377798;19;19952;-83
2023/03/13 02:48:33;;;;;;;;;;;;;;;8.27;73.99;97636.81;7378462;19;20269;-84
2023/03/13 02:51:01;;;;;;;;;;;;;;;8.30;73.91;97621.50;7379298;19;19954;-83
2023/03/13 02:53:28;;;;;;;;;;;;;;;8.33;73.67;97629.06;7377082;19;19922;-84
2023/03/13 02:55:55;;;;;;;;;;;;;;;8.31;73.95;97617.03;7377993;19;19918;-84
2023/03/13 02:58:24;;;;;;;;;;;;;;;8.32;73.91;97606.34;7376138;19;19954;-82
2023/03/13 03:00:51;;;;;;;;;;;;;;;8.37;73.75;97603.22;7379083;19;19943;-82
2023/03/13 03:03:18;;;;;;;;;;;;;;;8.44;73.87;97606.09;7379989;19;19986;-83
2023/03/13 03:05:45;;;;;;;;;;;;;;;8.52;73.99;97592.91;7376292;19;20297;-83
2023/03/13 03:08:11;;;;;;;;;;;;;;;8.48;74.68;97586.34;7379935;19;19923;-83
2023/03/13 03:10:38;;;;;;;;;;;;;;;8.42;75.12;97584.31;7375786;19;19940;-83
2023/03/13 03:13:05;;;;;;;;;;;;;;;8.47;74.92;97569.66;7380709;19;19914;-83
2023/03/13 03:15:31;;;;;;;;;;;;;;;8.50;75.15;97579.06;7378950;19;20781;-83
2023/03/13 03:17:58;;;;;;;;;;;;;;;8.51;75.40;97586.00;7376838;19;20321;-81
2023/03/13 03:20:24;;;;;;;;;;;;;;;8.55;76.03;97571.50;7378830;19;20002;-84
2023/03/13 03:22:53;;;;;;;;;;;;;;;8.46;77.88;97570.66;7379264;19;19930;-84
2023/03/13 03:25:19;;;;;;;;;;;;;;;8.37;78.84;97574.22;7378319;19;19929;-84
2023/03/13 03:27:46;;;;;;;;;;;;;;;8.30;80.05;97568.78;7377934;19;19944;-84
2023/03/13 03:30:13;;;;;;;;;;;;;;;8.14;79.86;97564.31;7380396;19;19922;-85
2023/03/13 03:32:40;;;;;;;;;;;;;;;8.05;81.48;97575.78;7377267;19;19919;-83
2023/03/13 03:35:07;;;;;;;;;;;;;;;8.02;81.56;97564.75;7381268;19;20360;-84
2023/03/13 03:37:33;;;;;;;;;;;;;;;8.07;82.69;97567.72;7380940;19;19951;-83
2023/03/13 03:40:04;;;;;;;;;;;;;;;8.05;82.58;97559.97;7378647;19;19923;-83
2023/03/13 03:42:31;;;;;;;;;;;;;;;8.02;83.92;97562.13;7380481;19;19943;-84
2023/03/13 03:44:58;;;;;;;;;;;;;;;7.99;84.68;97555.34;7376973;19;22214;-83
2023/03/13 03:47:24;;;;;;;;;;;;;;;7.98;84.46;97553.72;7377366;19;20245;-85
2023/03/13 03:49:51;;;;;;;;;;;;;;;7.92;84.53;97543.81;7378950;19;19934;-84
2023/03/13 03:52:18;;;;;;;;;;;;;;;7.87;84.40;97546.09;7380289;19;19921;-84
2023/03/13 03:54:45;;;;;;;;;;;;;;;7.93;84.03;97547.28;7376289;19;19918;-85
2023/03/13 03:57:13;;;;;;;;;;;;;;;8.01;84.42;97542.84;7380357;19;19926;-83
2023/03/13 03:59:43;;;;;;;;;;;;;;;8.10;84.47;97551.59;7379193;19;19918;-84
2023/03/13 04:02:09;;;;;;;;;;;;;;;8.18;84.48;97548.16;7379754;19;20382;-86
2023/03/13 04:04:38;;;;;;;;;;;;;;;8.16;83.96;97550.13;7378442;19;20371;-83
2023/03/13 04:07:10;;;;;;;;;;;;;;;8.16;84.16;97550.94;7379385;19;19922;-84
2023/03/13 04:09:38;;;;;;;;;;;;;;;8.14;84.08;97547.69;7380697;19;19922;-84
2023/03/13 04:12:07;;;;;;;;;;;;;;;8.14;84.53;97542.41;7383193;19;19923;-84
2023/03/13 04:14:38;;;;;;;;;;;;;;;8.13;84.27;97538.91;7377191;19;20777;-85
2023/03/13 04:17:07;;;;;;;;;;;;;;;8.11;84.20;97533.00;7380574;19;19929;-85
2023/03/13 04:19:33;;;;;;;;;;;;;;;8.18;83.96;97527.09;7378163;19;19935;-84
2023/03/13 04:22:00;;;;;;;;;;;;;;;8.24;84.17;97526.44;7379702;19;19978;-85
2023/03/13 04:24:26;;;;;;;;;;;;;;;8.28;83.86;97530.41;7380293;19;19923;-85
2023/03/13 04:26:55;;;;;;;;;;;;;;;8.36;83.82;97523.34;7376694;19;19914;-86
2023/03/13 04:29:25;;;;;;;;;;;;;;;8.53;83.44;97520.75;7377562;19;20010;-85
2023/03/13 04:31:58;;;;;;;;;;;;;;;8.62;83.48;97516.31;7374557;19;19914;-83
2023/03/13 04:34:45;;;;;;;;;;;;;;;8.65;83.12;97516.81;7379190;19;20267;-83
2023/03/13 04:37:19;;;;;;;;;;;;;;;8.73;83.15;97516.78;7376791;19;19921;-85
2023/03/13 04:40:01;;;;;;;;;;;;;;;8.86;83.09;97504.94;7378027;19;19911;-84
2023/03/13 04:42:46;;;;;;;;;;;;;;;8.93;83.49;97513.84;7378036;19;19929;-84
2023/03/13 04:45:35;;;;;;;;;;;;;;;9.26;83.83;97505.84;7375949;19;19935;-83
2023/03/13 04:48:20;;;;;;;;;;;;;;;9.41;83.47;97510.28;7378327;19;19918;-84
2023/03/13 04:51:09;;;;;;;;;;;;;;;9.61;82.74;97517.78;7378476;19;19942;-83
2023/03/13 04:53:47;;;;;;;;;;;;;;;9.77;82.45;97509.81;7366462;19;19934;-82
2023/03/13 04:56:32;;;;;;;;;;;;;;;9.85;82.15;97506.31;7384169;19;19922;-82
2023/03/13 04:59:25;;;;;;;;;;;;;;;9.97;81.93;97512.03;7385100;19;19922;-82
2023/03/13 05:02:05;;;;;;;;;;;;;;;10.09;81.22;97519.41;7383659;19;19915;-80
2023/03/13 05:04:46;;;;;;;;;;;;;;;10.18;81.10;97520.19;7381336;19;19921;-82
2023/03/13 05:07:23;;;;;;;;;;;;;;;10.00;81.57;97501.13;7381126;19;19950;-84
2023/03/13 05:09:50;;;;;;;;;;;;;;;10.08;81.68;97515.13;7384702;19;20403;-84
2023/03/13 05:12:35;;;;;;;;;;;;;;;10.06;81.77;97514.47;7386575;19;19918;-83
2023/03/13 05:15:27;;;;;;;;;;;;;;;10.05;81.52;97512.00;7385298;19;19927;-84
2023/03/13 05:18:09;;;;;;;;;;;;;;;10.02;81.91;97517.63;7383281;19;19922;-82
2023/03/13 05:20:45;;;;;;;;;;;;;;;10.10;81.58;97518.41;7381312;19;19922;-82
2023/03/13 05:23:35;;;;;;;;;;;;;;;9.99;82.02;97510.06;7383084;19;19910;-83
2023/03/13 05:26:21;;;;;;;;;;;;;;;9.94;81.87;97510.56;7382184;19;19937;-82
2023/03/13 05:29:08;;;;;;;;;;;;;;;10.11;81.53;97509.50;7382875;19;19915;-83
2023/03/13 05:31:58;;;;;;;;;;;;;;;10.14;81.50;97510.97;7381669;19;19930;-79
2023/03/13 05:34:36;;;;;;;;;;;;;;;10.20;81.31;97514.72;7382209;19;19925;-81
2023/03/13 05:37:33;;;;;;;;;;;;;;;10.05;81.90;97514.63;7373511;19;20411;-84
2023/03/13 05:40:11;;;;;;;;;;;;;;;10.09;81.96;97508.03;7382940;19;19941;-85
2023/03/13 05:42:58;;;;;;;;;;;;;;;10.08;81.71;97496.63;7380561;19;19918;-82
2023/03/13 05:45:43;;;;;;;;;;;;;;;10.01;82.07;97490.38;7377752;19;20470;-84
2023/03/13 05:48:23;;;;;;;;;;;;;;;10.07;82.01;97499.44;7381044;19;19922;-83
2023/03/13 05:51:10;;;;;;;;;;;;;;;10.08;82.07;97501.91;7385745;19;19929;-82
2023/03/13 05:54:15;;;;;;;;;;;;;;;10.19;81.85;97510.41;7376645;19;20066;-83
2023/03/13 05:56:57;;;;;;;;;;;;;;;10.17;81.80;97505.31;7371248;19;19923;-82
2023/03/13 05:59:46;;;;;;;;;;;;;;;10.14;82.24;97502.19;7375599;19;20021;-84
2023/03/13 06:02:32;;;;;;;;;;;;;;;10.15;81.71;97490.63;7382427;19;19925;-84
2023/03/13 06:05:00;;;;;;;;;;;;;;;10.23;81.53;97493.22;7378813;19;20396;-84
2023/03/13 06:07:26;;;;;;;;;;;;;;;10.25;81.43;97497.34;7379109;19;20396;-84
2023/03/13 06:09:53;;;;;;;;;;;;;;;10.29;81.37;97498.69;7379575;19;19918;-83
2023/03/13 06:12:20;;;;;;;;;;;;;;;10.29;81.30;97496.03;7382859;19;19923;-84
2023/03/13 06:14:46;;;;;;;;;;;;;;;10.40;80.93;97499.25;7378460;19;20070;-84
2023/03/13 06:17:13;;;;;;;;;;;;;;;10.46;80.78;97488.00;7382793;19;20353;-84
2023/03/13 06:19:39;;;;;;;;;;;;;;;10.48;80.61;97497.38;7380949;19;19956;-83
2023/03/13 06:22:06;;;;;;;;;;;;;;;10.46;80.62;97507.31;7381677;19;19957;-81
2023/03/13 06:24:33;;;;;;;;;;;;;;;10.52;80.43;97500.50;7380125;19;19943;-83
2023/03/13 06:26:59;;;;;;;;;;;;;;;10.58;80.81;97494.47;7375201;19;19954;-84
2023/03/13 06:29:26;;;;;;;;;;;;;;;10.60;80.66;97500.44;7373092;19;20380;-83
2023/03/13 06:31:52;;;;;;;;;;;;;;;10.68;79.96;97496.91;7373748;19;19922;-83
2023/03/13 06:34:19;;;;;;;;;;;;;;;10.65;80.02;97495.44;7375333;19;19939;-79
2023/03/13 06:36:46;;;;;;;;;;;;;;;10.63;80.35;97494.78;7372608;19;19950;-80
2023/03/13 06:39:12;;;;;;;;;;;;;;;10.76;80.12;97489.72;7378437;19;20348;-83
2023/03/13 06:41:39;;;;;;;;;;;;;;;10.76;79.99;97483.59;7369610;19;19930;-83
2023/03/13 06:44:05;;;;;;;;;;;;;;;10.77;80.68;97485.25;7375422;19;19918;-83
2023/03/13 06:46:32;;;;;;;;;;;;;;;10.96;79.60;97495.34;7377005;19;19918;-85
2023/03/13 06:48:59;;;;;;;;;;;;;;;10.89;79.65;97489.09;7377085;19;19919;-80
2023/03/13 06:51:26;;;;;;;;;;;;;;;11.06;78.78;97481.00;7381653;19;19938;-83
2023/03/13 06:53:53;;;;;;;;;;;;;;;11.07;78.85;97495.91;7375266;19;19915;-84
2023/03/13 06:56:20;;;;;;;;;;;;;;;11.03;79.11;97490.13;7385135;19;19919;-83
2023/03/13 06:58:47;;;;;;;;;;;;;;;11.11;78.92;97494.53;7375766;19;19946;-82
2023/03/13 07:01:14;;;;;;;;;;;;;;;11.08;79.12;97505.47;7381788;19;20376;-83
2023/03/13 07:03:41;;;;;;;;;;;;;;;11.11;78.97;97499.81;7373452;19;19939;-84
2023/03/13 07:06:08;;;;;;;;;;;;;;;11.10;78.90;97506.13;7375711;19;19922;-83
2023/03/13 07:08:34;;;;;;;;;;;;;;;11.25;78.61;97506.16;7378931;19;19947;-82
2023/03/13 07:11:03;;;;;;;;;;;;;;;11.20;78.67;97507.50;7377249;19;19942;-81
2023/03/13 07:13:29;;;;;;;;;;;;;;;11.26;78.35;97516.53;7381864;19;19926;-84
2023/03/13 07:16:00;;;;;;;;;;;;;;;11.35;78.30;97512.81;7379680;19;19919;-83
2023/03/13 07:18:26;;;;;;;;;;;;;;;11.33;78.39;97517.47;7380593;19;19919;-84
2023/03/13 07:20:54;;;;;;;;;;;;;;;11.38;77.96;97516.94;7378079;19;19926;-83
2023/03/13 07:23:21;;;;;;;;;;;;;;;11.33;78.31;97522.78;7380296;19;20237;-82
2023/03/13 07:25:54;;;;;;;;;;;;;;;11.34;78.35;97519.09;7371604;19;19950;-85
2023/03/13 07:28:21;;;;;;;;;;;;;;;11.31;78.39;97514.19;7379983;19;19919;-84
2023/03/13 07:30:48;;;;;;;;;;;;;;;11.26;78.39;97508.59;7378888;19;20459;-86
2023/03/13 07:33:15;;;;;;;;;;;;;;;11.33;78.41;97512.19;7380428;19;19919;-83
2023/03/13 07:35:51;;;;;;;;;;;;;;;11.34;78.87;97510.34;7371760;19;19947;-81
2023/03/13 07:38:17;;;;;;;;;;;;;;;11.31;79.10;97514.19;7379892;19;19939;-82
2023/03/13 07:40:48;;;;;;;;;;;;;;;11.37;78.56;97496.72;7374104;19;19922;-81
2023/03/13 07:43:15;;;;;;;;;;;;;;;11.35;78.91;97496.94;7377007;19;19929;-82
2023/03/13 07:45:56;;;;;;;;;;;;;;;11.28;79.34;97493.38;7377200;19;19918;-82
2023/03/13 07:48:24;;;;;;;;;;;;;;;11.23;79.51;97490.44;7379411;19;20502;-86
2023/03/13 07:50:52;;;;;;;;;;;;;;;11.23;79.89;97487.78;7376265;19;19919;-82
2023/03/13 07:53:22;;;;;;;;;;;;;;;11.28;79.83;97474.81;7375110;19;19918;-81
2023/03/13 07:55:52;;;;;;;;;;;;;;;11.34;79.64;97478.56;7377809;19;19922;-86
2023/03/13 07:58:19;;;;;;;;;;;;;;;11.38;79.48;97483.31;7379206;19;19922;-82
2023/03/13 08:00:45;;;;;;;;;;;;;;;11.42;79.56;97474.00;7379049;19;19943;-84
2023/03/13 08:03:12;;;;;;;;;;;;;;;11.46;79.48;97469.16;7374280;19;19923;-80
2023/03/13 08:05:39;;;;;;;;;;;;;;;11.67;78.82;97459.66;7375849;19;19911;-81
2023/03/13 08:08:05;;;;;;;;;;;;;;;11.86;78.35;97459.91;7373556;19;19922;-79
2023/03/13 08:10:32;;;;;;;;;;;;;;;11.94;77.94;97448.38;7380285;19;20540;-80
2023/03/13 08:12:58;;;;;;;;;;;;;;;12.01;77.69;97454.59;7377451;19;19986;-79
2023/03/13 08:15:25;;;;;;;;;;;;;;;12.19;76.76;97442.72;7378854;19;22458;-79
2023/03/13 08:17:52;;;;;;;;;;;;;;;12.33;76.50;97438.38;7380792;19;19907;-79
2023/03/13 08:20:18;;;;;;;;;;;;;;;12.47;76.37;97429.53;7382429;19;20480;-80
2023/03/13 08:22:49;;;;;;;;;;;;;;;12.51;76.06;97421.00;7381066;19;19922;-80
2023/03/13 08:25:16;;;;;;;;;;;;;;;12.64;76.09;97414.97;7378707;19;20047;-80
2023/03/13 08:27:42;;;;;;;;;;;;;;;12.71;76.22;97407.06;7378389;19;19926;-82
2023/03/13 08:30:09;;;;;;;;;;;;;;;12.87;75.44;97416.56;7382914;19;19915;-82
2023/03/13 08:32:35;;;;;;;;;;;;;;;13.00;74.77;97419.31;7391650;19;20276;-80
2023/03/13 08:35:03;;;;;;;;;;;;;;;13.05;74.29;97419.53;7384691;19;19933;-77
2023/03/13 08:37:30;;;;;;;;;;;;;;;13.13;73.67;97419.38;7389988;19;19926;-80
2023/03/13 08:39:59;;;;;;;;;;;;;;;13.25;73.30;97437.44;7392286;19;19923;-79
2023/03/13 08:42:26;;;;;;;;;;;;;;;13.34;72.77;97433.63;7390530;19;20356;-80
2023/03/13 08:44:52;;;;;;;;;;;;;;;13.43;72.60;97421.00;7387178;19;20621;-76
2023/03/13 08:47:19;;;;;;;;;;;;;;;13.37;72.36;97427.94;7386744;19;19948;-78
2023/03/13 08:49:45;;;;;;;;;;;;;;;13.32;72.11;97423.22;7383401;19;20381;-79
2023/03/13 08:52:12;;;;;;;;;;;;;;;13.32;72.16;97428.53;7386624;19;19994;-80
2023/03/13 08:54:38;;;;;;;;;;;;;;;13.41;71.96;97425.72;7391276;19;19942;-78
2023/03/13 08:57:05;;;;;;;;;;;;;;;13.41;71.40;97429.19;7384728;19;19922;-78
2023/03/13 08:59:31;;;;;;;;;;;;;;;13.39;71.85;97439.19;7387288;19;19915;-80
2023/03/13 09:01:58;;;;;;;;;;;;;;;13.45;72.06;97434.91;7390242;19;19938;-81
2023/03/13 09:04:25;;;;;;;;;;;;;;;13.45;72.16;97433.06;7392529;19;19978;-82
2023/03/13 09:06:51;;;;;;;;;;;;;;;13.50;72.08;97430.66;7389339;19;19921;-83
2023/03/13 09:09:18;;;;;;;;;;;;;;;13.41;72.04;97439.00;7392394;19;19943;-83
2023/03/13 09:11:45;;;;;;;;;;;;;;;13.49;71.81;97429.03;7385119;19;19926;-78
2023/03/13 09:14:11;;;;;;;;;;;;;;;13.53;71.54;97430.28;7388942;19;19922;-81
2023/03/13 09:16:38;;;;;;;;;;;;;;;13.52;71.27;97431.28;7389661;19;19918;-81
2023/03/13 09:19:04;;;;;;;;;;;;;;;13.53;70.72;97429.44;7384742;19;19919;-81
2023/03/13 09:21:32;;;;;;;;;;;;;;;13.65;70.16;97429.72;7391231;19;19918;-84
2023/03/13 09:23:58;;;;;;;;;;;;;;;13.79;70.13;97428.72;7391766;19;20417;-79
2023/03/13 09:26:26;;;;;;;;;;;;;;;13.83;70.28;97430.78;7394571;19;20529;-83
2023/03/13 09:28:53;;;;;;;;;;;;;;;13.96;69.93;97419.38;7383361;19;19938;-85
2023/03/13 09:31:21;;;;;;;;;;;;;;;14.08;68.90;97426.75;7385372;19;19926;-78
2023/03/13 09:33:48;;;;;;;;;;;;;;;14.25;67.35;97420.06;7384970;19;19932;-78
2023/03/13 09:36:15;;;;;;;;;;;;;;;14.53;66.79;97435.06;7386249;19;20333;-76
2023/03/13 09:38:45;;;;;;;;;;;;;;;14.36;67.05;97438.06;7381948;19;19923;-77
2023/03/13 09:41:19;;;;;;;;;;;;;;;14.42;68.89;97433.78;7386961;19;19933;-81
2023/03/13 09:43:47;;;;;;;;;;;;;;;14.22;67.63;97433.78;7383144;19;19951;-79
2023/03/13 09:46:32;;;;;;;;;;;;;;;14.30;67.73;97440.72;7385369;19;19935;-82
2023/03/13 09:49:00;;;;;;;;;;;;;;;14.24;67.87;97442.34;7384072;19;19911;-80
2023/03/13 09:51:30;;;;;;;;;;;;;;;14.11;68.11;97437.00;7383961;19;19923;-78
2023/03/13 09:53:58;;;;;;;;;;;;;;;14.28;67.43;97435.63;7379795;19;19923;-79
2023/03/13 09:56:29;;;;;;;;;;;;;;;14.58;66.50;97435.25;7383788;19;20420;-82
2023/03/13 09:58:57;;;;;;;;;;;;;;;14.97;66.01;97426.44;7383475;19;19951;-78
2023/03/13 10:01:28;;;;;;;;;;;;;;;15.43;65.38;97414.88;7389632;19;19930;-79
2023/03/13 10:04:11;;;;;;;;;;;;;;;15.68;64.44;97403.50;7381783;19;19926;-78
2023/03/13 10:06:39;;;;;;;;;;;;;;;15.62;63.97;97401.69;7384415;19;20364;-78
2023/03/13 10:09:16;;;;;;;;;;;;;;;15.53;63.70;97401.94;7381612;19;20434;-81
2023/03/13 10:11:46;;;;;;;;;;;;;;;15.53;63.23;97398.41;7382780;19;19918;-78
2023/03/13 10:14:15;;;;;;;;;;;;;;;15.37;63.69;97395.19;7384937;19;19979;-80
2023/03/13 10:17:05;;;;;;;;;;;;;;;15.27;64.16;97392.16;7385148;19;19907;-80
2023/03/13 10:19:36;;;;;;;;;;;;;;;15.15;64.87;97385.84;7391489;19;20021;-79
2023/03/13 10:22:07;;;;;;;;;;;;;;;15.20;64.75;97387.88;7389446;19;19929;-87
2023/03/13 10:24:52;;;;;;;;;;;;;;;15.66;63.58;97381.56;7389513;19;19926;-80
2023/03/13 10:27:19;;;;;;;;;;;;;;;15.89;63.20;97371.22;7392776;19;20599;-83
2023/03/13 10:29:45;;;;;;;;;;;;;;;16.04;63.21;97364.78;7394965;19;20348;-85
2023/03/13 10:32:13;;;;;;;;;;;;;;;16.63;61.42;97364.28;7396873;19;19919;-84
2023/03/13 10:35:02;;;;;;;;;;;;;;;16.55;59.95;97359.22;7390001;19;19911;-83
2023/03/13 10:37:29;;;;;;;;;;;;;;;16.95;57.96;97358.06;7383243;19;19926;-78
2023/03/13 10:40:10;;;;;;;;;;;;;;;16.92;58.90;97362.00;7385216;19;19922;-79
2023/03/13 10:42:39;;;;;;;;;;;;;;;16.83;58.15;97355.34;7389519;19;19911;-85
2023/03/13 10:45:06;;;;;;;;;;;;;;;17.49;57.51;97353.78;7377324;19;19938;-81
2023/03/13 10:47:33;;;;;;;;;;;;;;;17.59;56.57;97348.72;7383134;19;19918;-83
2023/03/13 10:49:59;;;;;;;;;;;;;;;17.53;57.61;97345.06;7390770;19;19919;-85
2023/03/13 10:52:31;;;;;;;;;;;;;;;17.03;56.49;97341.75;7385169;19;20244;-79
2023/03/13 10:55:02;;;;;;;;;;;;;;;16.61;58.92;97342.34;7376117;19;19922;-83
2023/03/13 10:57:30;;;;;;;;;;;;;;;16.56;59.42;97333.34;7379400;19;19919;-77
2023/03/13 10:59:57;;;;;;;;;;;;;;;16.57;59.19;97325.13;7372564;19;20446;-82
2023/03/13 11:02:26;;;;;;;;;;;;;;;16.83;59.14;97324.09;7377129;19;19935;-76
2023/03/13 11:04:52;;;;;;;;;;;;;;;17.69;57.16;97318.72;7377988;19;19926;-80
2023/03/13 11:07:31;;;;;;;;;;;;;;;18.59;54.99;97309.78;7375958;19;19919;-77
2023/03/13 11:10:00;;;;;;;;;;;;;;;18.79;51.93;97314.78;7376419;19;19933;-81
2023/03/13 11:12:27;;;;;;;;;;;;;;;18.94;52.42;97322.34;7378220;19;19915;-78
2023/03/13 11:14:57;;;;;;;;;;;;;;;19.05;51.03;97316.97;7378135;19;19923;-77
2023/03/13 11:17:36;;;;;;;;;;;;;;;18.63;52.82;97311.72;7376778;19;19918;-78
2023/03/13 11:20:22;;;;;;;;;;;;;;;18.28;53.08;97305.56;7375369;19;20290;-78
2023/03/13 11:22:49;;;;;;;;;;;;;;;17.60;55.01;97296.03;7378659;19;19946;-79
2023/03/13 11:25:27;;;;;;;;;;;;;;;18.15;53.98;97290.50;7382869;19;19914;-81
2023/03/13 11:28:12;;;;;;;;;;;;;;;19.11;52.62;97284.91;7378409;19;19906;-80
2023/03/13 11:30:50;;;;;;;;;;;;;;;19.99;50.35;97270.22;7383069;19;19915;-81
2023/03/13 11:33:21;;;;;;;;;;;;;;;20.12;49.60;97272.59;7382044;19;19919;-81
2023/03/13 11:36:03;;;;;;;;;;;;;;;19.99;51.29;97270.22;7377496;19;20358;-77
2023/03/13 11:38:38;;;;;;;;;;;;;;;20.00;48.62;97260.28;7379160;19;20006;-78
2023/03/13 11:41:08;;;;;;;;;;;;;;;20.51;48.71;97240.41;7376392;19;19911;-79
2023/03/13 11:43:38;;;;;;;;;;;;;;;20.86;46.80;97243.84;7375668;19;20385;-79
2023/03/13 11:46:07;;;;;;;;;;;;;;;20.93;47.36;97231.84;7373824;19;19918;-81
2023/03/13 11:48:34;;;;;;;;;;;;;;;20.31;47.37;97224.00;7380464;19;19919;-81
2023/03/13 11:51:20;;;;;;;1.50;0.82;;;;;;;19.72;49.35;97219.84;7374512;19;20029;-78
2023/03/13 11:53:59;;;;;;;1.80;0.90;;;;;;;19.79;49.02;97210.81;7387785;19;20312;-81
2023/03/13 11:56:35;;;;;;;;;;;;;;;19.94;48.76;97205.72;7383534;19;20333;-78
2023/03/13 11:59:01;;;;;;;;;;;;;;;19.77;49.24;97196.81;7366845;19;20569;-79
2023/03/13 12:01:35;;;;;;;2.22;0.90;;;;;;;19.92;49.86;97189.84;7387657;19;20020;-82
2023/03/13 12:04:18;;;;;;;1.83;0.93;;;;;;;19.83;49.35;97179.78;7381259;19;19929;-78
2023/03/13 12:06:51;;;;;;;1.52;0.93;;;;;;;19.88;48.80;97177.13;7385688;19;19914;-78
2023/03/13 12:09:35;;;;;;;2.10;1.38;;;;;;;19.64;48.74;97166.56;7381080;19;19922;-78
2023/03/13 12:12:04;;;;;;;1.50;1.00;;;;;;;19.20;49.61;97160.97;7383237;19;20391;-79
2023/03/13 12:14:39;;;;;;;1.90;0.90;;;;;;;19.23;50.53;97155.13;7388746;19;20309;-77
2023/03/13 12:17:12;;;;;;;1.75;0.73;;;;;;;19.36;49.92;97156.69;7385099;19;20244;-78
2023/03/13 12:19:52;;;;;;;0.70;0.70;;;;;;;19.36;50.21;97155.88;7385319;19;19929;-78
2023/03/13 12:22:27;;;;;;;2.85;1.33;;;;;;;18.92;49.92;97143.03;7386160;19;19919;-77
2023/03/13 12:24:59;;;;;;;3.50;1.00;;;;;;;19.23;49.93;97133.66;7385225;19;19941;-77
2023/03/13 12:27:36;;;;;;;1.33;0.63;;;;;;;19.06;49.78;97122.94;7384894;19;19978;-79
2023/03/13 12:30:46;;;;;;;1.98;1.17;;;;;;;19.61;49.61;97113.38;7382780;19;19963;-81
2023/03/13 12:33:26;;;;;;;1.15;0.80;;;;;;;19.75;49.33;97103.16;7383523;19;20411;-82
2023/03/13 12:36:19;;;;;;;3.80;0.95;;;;;;;19.81;49.61;97093.31;7380190;19;20332;-79
2023/03/13 12:38:57;;;;;;;4.17;0.77;;;;;;;19.50;48.58;97095.50;7382440;19;20713;-75
2023/03/13 12:41:28;;;;;;;1.33;0.70;;;;;;;19.40;49.23;97079.22;7381858;19;19934;-77
2023/03/13 12:43:56;;;;;;;2.10;1.00;;;;;;;19.44;48.72;97069.66;7388053;19;20134;-78
2023/03/13 12:46:41;;;;;;;1.40;0.68;;;;;;;19.69;48.58;97055.84;7390801;19;19922;-78
2023/03/13 12:49:26;;;;;;;2.60;0.60;;;;;;;19.76;48.77;97055.66;7382582;19;19933;-79
2023/03/13 12:52:16;;;;;;;2.38;0.95;;;;;;;19.89;49.25;97049.94;7388229;19;19933;-80
2023/03/13 12:55:05;;;;;;;1.30;0.50;;;;;;;20.15;47.32;97037.69;7389479;19;20046;-77
2023/03/13 12:58:11;;;;;;;;;;;;;;;20.22;46.37;97032.94;7384435;19;19929;-77
2023/03/13 13:00:40;;;;;;;2.20;0.90;;;;;;;20.36;46.55;97022.63;7370393;19;19915;-77
2023/03/13 13:03:12;;;;;;;2.35;1.02;;;;;;;20.45;46.40;97004.16;7378325;19;20269;-81
2023/03/13 13:05:39;;;;;;;1.88;0.80;;;;;;;20.38;47.29;96996.31;7388036;19;19918;-79